createdAt,value
2018-11-12T00:00:11.352Z,0
2018-11-12T00:01:21.217Z,0
2018-11-12T00:02:31.064Z,0
2018-11-12T00:03:40.911Z,0
2018-11-12T00:04:50.765Z,0
2018-11-12T00:06:00.886Z,0
2018-11-12T00:07:11.092Z,0
2018-11-12T00:08:21.227Z,0
2018-11-12T00:09:31.078Z,0
2018-11-12T00:10:40.934Z,0
2018-11-12T00:11:50.798Z,0
2018-11-12T00:13:00.946Z,0
2018-11-12T00:14:11.075Z,0
2018-11-12T00:15:21.212Z,0
2018-11-12T00:16:30.795Z,0
2018-11-12T00:17:40.365Z,0
2018-11-12T00:18:50.547Z,0
2018-11-12T00:20:00.669Z,0
2018-11-12T00:21:10.527Z,0
2018-11-12T00:22:20.108Z,0
2018-11-12T00:23:30.251Z,0
2018-11-12T00:24:39.553Z,0
2018-11-12T00:25:49.687Z,0
2018-11-12T00:26:59.535Z,0
2018-11-12T00:28:08.835Z,0
2018-11-12T00:29:18.686Z,0
2018-11-12T00:30:28.266Z,0
2018-11-12T00:31:38.120Z,0
2018-11-12T00:32:47.974Z,0
2018-11-12T00:33:57.827Z,0
2018-11-12T00:35:07.691Z,0
2018-11-12T00:36:17.815Z,0
2018-11-12T00:37:27.953Z,0
2018-11-12T00:38:38.077Z,0
2018-11-12T00:39:47.936Z,0
2018-11-12T00:40:58.073Z,0
2018-11-12T00:42:08.213Z,0
2018-11-12T00:43:18.388Z,0
2018-11-12T00:44:27.966Z,0
2018-11-12T00:45:38.093Z,0
2018-11-12T00:46:47.947Z,0
2018-11-12T00:47:57.796Z,0
2018-11-12T00:49:07.919Z,0
2018-11-12T00:50:17.776Z,0
2018-11-12T00:51:27.910Z,0
2018-11-12T00:52:37.769Z,0
2018-11-12T00:53:47.616Z,0
2018-11-12T00:54:57.472Z,0
2018-11-12T00:56:07.344Z,0
2018-11-12T00:57:17.473Z,0
2018-11-12T00:58:27.325Z,0
2018-11-12T00:59:36.901Z,0
2018-11-12T01:00:46.766Z,0
2018-11-12T01:01:56.623Z,0
2018-11-12T01:03:06.208Z,0
2018-11-12T01:04:17.079Z,0
2018-11-12T01:05:26.986Z,0
2018-11-12T01:06:37.118Z,0
2018-11-12T01:07:46.975Z,0
2018-11-12T01:08:56.555Z,0
2018-11-12T01:10:06.683Z,0
2018-11-12T01:11:15.983Z,0
2018-11-12T01:12:26.120Z,0
2018-11-12T01:13:35.706Z,0
2018-11-12T01:14:45.843Z,0
2018-11-12T01:15:55.983Z,0
2018-11-12T01:17:05.569Z,0
2018-11-12T01:18:15.422Z,0
2018-11-12T01:19:25.275Z,0
2018-11-12T01:20:35.145Z,0
2018-11-12T01:21:45.277Z,0
2018-11-12T01:22:55.467Z,0
2018-11-12T01:24:05.326Z,0
2018-11-12T01:25:15.180Z,0
2018-11-12T01:26:25.038Z,0
2018-11-12T01:27:35.190Z,0
2018-11-12T01:28:45.040Z,0
2018-11-12T01:29:55.186Z,0
2018-11-12T01:31:05.323Z,0
2018-11-12T01:32:15.454Z,0
2018-11-12T01:33:25.591Z,0
2018-11-12T01:34:35.167Z,0
2018-11-12T01:35:44.753Z,0
2018-11-12T01:36:54.346Z,0
2018-11-12T01:38:04.198Z,0
2018-11-12T01:39:14.326Z,0
2018-11-12T01:40:24.460Z,0
2018-11-12T01:41:34.584Z,0
2018-11-12T01:42:44.710Z,0
2018-11-12T01:43:54.842Z,0
2018-11-12T01:45:04.972Z,0
2018-11-12T01:46:14.875Z,0
2018-11-12T01:47:24.726Z,0
2018-11-12T01:48:34.583Z,0
2018-11-12T01:49:44.729Z,0
2018-11-12T01:50:54.310Z,0
2018-11-12T01:52:03.894Z,0
2018-11-12T01:53:13.200Z,0
2018-11-12T01:54:23.056Z,0
2018-11-12T01:55:32.909Z,0
2018-11-12T01:56:42.488Z,0
2018-11-12T01:57:52.345Z,0
2018-11-12T01:59:02.477Z,0
2018-11-12T02:00:12.619Z,0
2018-11-12T02:01:22.474Z,0
2018-11-12T02:02:32.334Z,0
2018-11-12T02:03:42.191Z,0
2018-11-12T02:04:52.911Z,0
2018-11-12T02:06:03.124Z,0
2018-11-12T02:07:12.711Z,0
2018-11-12T02:08:22.298Z,0
2018-11-12T02:09:32.429Z,0
2018-11-12T02:10:42.562Z,0
2018-11-12T02:11:52.692Z,0
2018-11-12T02:13:02.826Z,0
2018-11-12T02:14:12.954Z,0
2018-11-12T02:15:23.087Z,0
2018-11-12T02:16:32.664Z,0
2018-11-12T02:17:42.793Z,0
2018-11-12T02:18:52.922Z,0
2018-11-12T02:20:02.791Z,0
2018-11-12T02:21:12.921Z,0
2018-11-12T02:22:23.109Z,0
2018-11-12T02:23:32.692Z,0
2018-11-12T02:24:42.846Z,0
2018-11-12T02:25:52.977Z,0
2018-11-12T02:27:02.834Z,0
2018-11-12T02:28:12.702Z,0
2018-11-12T02:29:22.563Z,0
2018-11-12T02:30:32.594Z,0
2018-11-12T02:31:42.452Z,0
2018-11-12T02:32:52.591Z,0
2018-11-12T02:34:02.461Z,0
2018-11-12T02:35:12.048Z,0
2018-11-12T02:36:22.192Z,0
2018-11-12T02:37:32.328Z,0
2018-11-12T02:38:42.455Z,0
2018-11-12T02:39:52.584Z,0
2018-11-12T02:41:02.715Z,0
2018-11-12T02:42:12.852Z,0
2018-11-12T02:43:22.436Z,0
2018-11-12T02:44:32.288Z,0
2018-11-12T02:45:41.864Z,0
2018-11-12T02:46:52.003Z,0
2018-11-12T02:48:01.858Z,0
2018-11-12T02:49:11.721Z,0
2018-11-12T02:50:21.865Z,0
2018-11-12T02:51:31.723Z,0
2018-11-12T02:52:41.584Z,0
2018-11-12T02:53:51.708Z,0
2018-11-12T02:55:01.847Z,0
2018-11-12T02:56:11.724Z,0
2018-11-12T02:57:21.759Z,0
2018-11-12T02:58:31.924Z,0
2018-11-12T02:59:42.051Z,0
2018-11-12T03:00:52.187Z,0
2018-11-12T03:02:02.045Z,0
2018-11-12T03:03:12.185Z,0
2018-11-12T03:04:22.049Z,0
2018-11-12T03:05:32.180Z,0
2018-11-12T03:06:42.325Z,0
2018-11-12T03:07:52.298Z,0
2018-11-12T03:09:02.425Z,0
2018-11-12T03:10:12.010Z,0
2018-11-12T03:11:22.147Z,0
2018-11-12T03:12:32.276Z,0
2018-11-12T03:13:42.199Z,0
2018-11-12T03:14:52.325Z,0
2018-11-12T03:16:02.188Z,0
2018-11-12T03:17:11.503Z,0
2018-11-12T03:18:21.647Z,0
2018-11-12T03:19:31.788Z,0
2018-11-12T03:20:41.918Z,0
2018-11-12T03:21:52.049Z,0
2018-11-12T03:23:01.927Z,0
2018-11-12T03:24:12.067Z,0
2018-11-12T03:25:21.933Z,0
2018-11-12T03:26:31.790Z,0
2018-11-12T03:27:42.020Z,0
2018-11-12T03:28:52.025Z,0
2018-11-12T03:30:02.151Z,0
2018-11-12T03:31:12.309Z,0
2018-11-12T03:32:22.487Z,0
2018-11-12T03:33:32.349Z,0
2018-11-12T03:34:42.489Z,0
2018-11-12T03:35:52.348Z,0
2018-11-12T03:37:01.930Z,0
2018-11-12T03:38:11.786Z,0
2018-11-12T03:39:21.923Z,0
2018-11-12T03:40:31.791Z,0
2018-11-12T03:41:41.653Z,0
2018-11-12T03:42:51.515Z,0
2018-11-12T03:44:01.655Z,0
2018-11-12T03:45:11.246Z,0
2018-11-12T03:46:21.380Z,0
2018-11-12T03:47:31.507Z,0
2018-11-12T03:48:41.642Z,0
2018-11-12T03:49:50.944Z,0
2018-11-12T03:51:00.521Z,0
2018-11-12T03:52:10.107Z,0
2018-11-12T03:53:20.244Z,0
2018-11-12T03:54:30.373Z,0
2018-11-12T03:55:40.520Z,0
2018-11-12T03:56:50.380Z,0
2018-11-12T03:58:00.517Z,0
2018-11-12T03:59:10.379Z,0
2018-11-12T04:00:20.839Z,0
2018-11-12T04:01:31.068Z,0
2018-11-12T04:02:41.203Z,0
2018-11-12T04:03:51.333Z,0
2018-11-12T04:05:01.188Z,0
2018-11-12T04:06:11.314Z,0
2018-11-12T04:07:21.442Z,0
2018-11-12T04:08:31.584Z,0
2018-11-12T04:09:41.709Z,0
2018-11-12T04:10:51.562Z,0
2018-11-12T04:12:01.685Z,0
2018-11-12T04:13:11.819Z,0
2018-11-12T04:14:21.407Z,0
2018-11-12T04:15:31.545Z,0
2018-11-12T04:16:41.400Z,0
2018-11-12T04:17:51.601Z,0
2018-11-12T04:19:01.456Z,0
2018-11-12T04:20:11.340Z,0
2018-11-12T04:21:21.193Z,0
2018-11-12T04:22:31.069Z,0
2018-11-12T04:23:41.199Z,0
2018-11-12T04:24:51.358Z,0
2018-11-12T04:26:01.489Z,0
2018-11-12T04:27:11.072Z,0
2018-11-12T04:28:21.212Z,0
2018-11-12T04:29:31.330Z,0
2018-11-12T04:30:41.464Z,0
2018-11-12T04:31:51.332Z,0
2018-11-12T04:33:01.483Z,0
2018-11-12T04:34:11.067Z,0
2018-11-12T04:35:20.640Z,0
2018-11-12T04:36:30.781Z,0
2018-11-12T04:37:40.648Z,0
2018-11-12T04:38:50.779Z,0
2018-11-12T04:40:00.367Z,0
2018-11-12T04:41:10.288Z,0
2018-11-12T04:42:20.429Z,0
2018-11-12T04:43:30.005Z,0
2018-11-12T04:44:39.864Z,0
2018-11-12T04:45:50.453Z,0
2018-11-12T04:47:00.591Z,0
2018-11-12T04:48:10.447Z,0
2018-11-12T04:49:20.024Z,0
2018-11-12T04:50:30.157Z,0
2018-11-12T04:51:39.743Z,0
2018-11-12T04:52:49.868Z,0
2018-11-12T04:54:00.486Z,0
2018-11-12T04:55:10.670Z,0
2018-11-12T04:56:20.884Z,0
2018-11-12T04:57:31.013Z,0
2018-11-12T04:58:41.147Z,0
2018-11-12T04:59:51.030Z,0
2018-11-12T05:01:01.171Z,0
2018-11-12T05:02:11.787Z,0
2018-11-12T05:03:21.370Z,0
2018-11-12T05:04:31.217Z,0
2018-11-12T05:05:41.349Z,0
2018-11-12T05:06:51.479Z,0
2018-11-12T05:08:01.347Z,0
2018-11-12T05:09:10.984Z,0
2018-11-12T05:10:21.141Z,0
2018-11-12T05:11:31.000Z,0
2018-11-12T05:12:40.857Z,0
2018-11-12T05:13:50.984Z,0
2018-11-12T05:15:00.837Z,0
2018-11-12T05:16:10.432Z,0
2018-11-12T05:17:20.284Z,0
2018-11-12T05:18:30.189Z,0
2018-11-12T05:19:40.341Z,0
2018-11-12T05:20:50.195Z,0
2018-11-12T05:22:00.324Z,0
2018-11-12T05:23:10.183Z,0
2018-11-12T05:24:20.311Z,0
2018-11-12T05:25:30.171Z,0
2018-11-12T05:26:40.302Z,0
2018-11-12T05:27:50.433Z,0
2018-11-12T05:29:00.569Z,0
2018-11-12T05:30:10.712Z,0
2018-11-12T05:31:20.840Z,0
2018-11-12T05:32:30.970Z,0
2018-11-12T05:33:41.109Z,0
2018-11-12T05:34:51.238Z,0
2018-11-12T05:36:01.376Z,0
2018-11-12T05:37:11.280Z,0
2018-11-12T05:38:21.852Z,0
2018-11-12T05:39:31.519Z,0
2018-11-12T05:40:41.378Z,0
2018-11-12T05:41:51.502Z,0
2018-11-12T05:43:01.624Z,0
2018-11-12T05:44:11.473Z,0
2018-11-12T05:45:21.327Z,0
2018-11-12T05:46:31.178Z,0
2018-11-12T05:47:41.037Z,0
2018-11-12T05:48:50.625Z,0
2018-11-12T05:50:00.752Z,0
2018-11-12T05:51:10.607Z,0
2018-11-12T05:52:20.730Z,0
2018-11-12T05:53:30.581Z,0
2018-11-12T05:54:40.713Z,0
2018-11-12T05:55:50.566Z,0
2018-11-12T05:57:00.422Z,0
2018-11-12T05:58:09.723Z,0
2018-11-12T05:59:19.681Z,0
2018-11-12T06:00:29.545Z,0
2018-11-12T06:01:39.124Z,0
2018-11-12T06:02:49.261Z,0
2018-11-12T06:03:59.127Z,0
2018-11-12T06:05:09.328Z,0
2018-11-12T06:06:19.186Z,0
2018-11-12T06:07:29.310Z,0
2018-11-12T06:08:39.440Z,0
2018-11-12T06:09:49.298Z,0
2018-11-12T06:10:59.429Z,0
2018-11-12T06:12:09.555Z,0
2018-11-12T06:13:19.408Z,0
2018-11-12T06:14:29.533Z,0
2018-11-12T06:15:39.655Z,0
2018-11-12T06:16:49.789Z,0
2018-11-12T06:17:59.639Z,0
2018-11-12T06:19:09.776Z,0
2018-11-12T06:20:19.629Z,0
2018-11-12T06:21:29.483Z,0
2018-11-12T06:22:39.670Z,0
2018-11-12T06:23:49.598Z,0
2018-11-12T06:24:59.448Z,0
2018-11-12T06:26:41.126Z,0
2018-11-12T06:27:50.983Z,0
2018-11-12T06:29:00.564Z,0
2018-11-12T06:30:10.425Z,0
2018-11-12T06:31:21.242Z,0
2018-11-12T06:32:31.513Z,0
2018-11-12T06:33:41.090Z,0
2018-11-12T06:34:51.215Z,0
2018-11-12T06:36:00.803Z,0
2018-11-12T06:37:10.938Z,0
2018-11-12T06:38:20.797Z,0
2018-11-12T06:39:30.650Z,0
2018-11-12T06:40:51.252Z,0
2018-11-12T06:42:01.390Z,0
2018-11-12T06:43:12.297Z,0
2018-11-12T06:44:22.253Z,0
2018-11-12T06:45:32.106Z,0
2018-11-12T06:46:42.288Z,0
2018-11-12T06:47:51.540Z,0
2018-11-12T06:49:01.671Z,0
2018-11-12T06:50:11.250Z,0
2018-11-12T06:51:21.407Z,0
2018-11-12T06:52:31.258Z,0
2018-11-12T06:53:41.438Z,0
2018-11-12T06:54:51.567Z,0
2018-11-12T06:56:01.695Z,0
2018-11-12T06:57:11.832Z,0
2018-11-12T06:58:21.683Z,0
2018-11-12T06:59:31.816Z,0
2018-11-12T07:00:42.018Z,0
2018-11-12T07:01:51.606Z,5
2018-11-12T07:03:01.746Z,5
2018-11-12T07:04:11.598Z,5
2018-11-12T07:05:21.728Z,5
2018-11-12T07:06:31.898Z,5
2018-11-12T07:07:42.091Z,5
2018-11-12T07:08:52.233Z,5
2018-11-12T07:10:02.098Z,5
2018-11-12T07:11:11.955Z,5
2018-11-12T07:12:21.816Z,10
2018-11-12T07:13:32.386Z,10
2018-11-12T07:14:42.513Z,10
2018-11-12T07:15:52.369Z,10
2018-11-12T07:17:02.497Z,10
2018-11-12T07:18:12.380Z,15
2018-11-12T07:19:22.236Z,15
2018-11-12T07:20:32.361Z,15
2018-11-12T07:21:42.495Z,20
2018-11-12T07:22:52.350Z,20
2018-11-12T07:24:02.258Z,20
2018-11-12T07:25:12.426Z,20
2018-11-12T07:26:22.220Z,20
2018-11-12T07:27:32.347Z,20
2018-11-12T07:28:42.220Z,20
2018-11-12T07:29:51.790Z,20
2018-11-12T07:31:02.991Z,20
2018-11-12T07:32:12.847Z,20
2018-11-12T07:33:22.985Z,20
2018-11-12T07:34:32.843Z,20
2018-11-12T07:35:42.710Z,20
2018-11-12T07:36:52.846Z,20
2018-11-12T07:38:02.977Z,20
2018-11-12T07:39:12.834Z,15
2018-11-12T07:40:22.142Z,15
2018-11-12T07:41:32.268Z,15
2018-11-12T07:42:42.122Z,15
2018-11-12T07:43:51.977Z,15
2018-11-12T07:45:02.117Z,15
2018-11-12T07:46:11.695Z,20
2018-11-12T07:47:21.274Z,20
2018-11-12T07:48:30.901Z,20
2018-11-12T07:49:40.709Z,25
2018-11-12T07:50:50.840Z,25
2018-11-12T07:52:00.964Z,25
2018-11-12T07:53:11.148Z,30
2018-11-12T07:54:21.105Z,30
2018-11-12T07:55:30.981Z,25
2018-11-12T07:56:41.291Z,25
2018-11-12T07:57:51.148Z,25
2018-11-12T07:59:01.272Z,25
2018-11-12T08:00:11.148Z,25
2018-11-12T08:01:20.730Z,25
2018-11-12T08:02:30.578Z,20
2018-11-12T08:03:40.834Z,20
2018-11-12T08:04:51.022Z,25
2018-11-12T08:06:01.162Z,25
2018-11-12T08:07:11.015Z,25
2018-11-12T08:08:20.863Z,20
2018-11-12T08:09:30.582Z,20
2018-11-12T08:10:40.866Z,25
2018-11-12T08:11:51.215Z,25
2018-11-12T08:13:01.017Z,30
2018-11-12T08:14:10.318Z,35
2018-11-12T08:15:20.472Z,40
2018-11-12T08:16:30.597Z,50
2018-11-12T08:17:41.037Z,55
2018-11-12T08:18:51.597Z,55
2018-11-12T08:20:01.448Z,60
2018-11-12T08:21:11.307Z,65
2018-11-12T08:22:21.170Z,70
2018-11-12T08:23:31.309Z,70
2018-11-12T08:24:41.943Z,70
2018-11-12T08:25:51.878Z,70
2018-11-12T08:27:01.739Z,75
2018-11-12T08:28:11.321Z,85
2018-11-12T08:29:21.455Z,90
2018-11-12T08:30:32.543Z,95
2018-11-12T08:31:42.839Z,95
2018-11-12T08:32:52.964Z,90
2018-11-12T08:34:02.958Z,95
2018-11-12T08:35:12.535Z,105
2018-11-12T08:36:22.563Z,115
2018-11-12T08:37:32.421Z,115
2018-11-12T08:38:42.559Z,110
2018-11-12T08:39:53.794Z,105
2018-11-12T08:41:04.919Z,100
2018-11-12T08:42:15.074Z,100
2018-11-12T08:43:24.933Z,95
2018-11-12T08:44:34.788Z,100
2018-11-12T08:45:44.965Z,105
2018-11-12T08:46:54.819Z,115
2018-11-12T08:48:04.960Z,120
2018-11-12T08:49:16.305Z,120
2018-11-12T08:50:26.456Z,125
2018-11-12T08:51:36.592Z,135
2018-11-12T08:52:46.723Z,145
2018-11-12T08:53:56.584Z,155
2018-11-12T08:55:06.940Z,150
2018-11-12T08:56:17.155Z,140
2018-11-12T08:57:27.330Z,135
2018-11-12T08:58:37.187Z,125
2018-11-12T08:59:46.978Z,115
2018-11-12T09:00:57.656Z,95
2018-11-12T09:02:07.587Z,90
2018-11-12T09:03:17.818Z,100
2018-11-12T09:04:27.680Z,110
2018-11-12T09:05:37.633Z,115
2018-11-12T09:06:47.828Z,115
2018-11-12T09:07:57.687Z,105
2018-11-12T09:09:11.437Z,100
2018-11-12T09:10:21.864Z,100
2018-11-12T09:11:32.006Z,110
2018-11-12T09:12:42.137Z,110
2018-11-12T09:13:53.766Z,105
2018-11-12T09:15:03.672Z,95
2018-11-12T09:16:13.533Z,85
2018-11-12T09:17:23.664Z,85
2018-11-12T09:18:33.511Z,80
2018-11-12T09:19:43.634Z,85
2018-11-12T09:20:53.542Z,95
2018-11-12T09:22:03.673Z,95
2018-11-12T09:23:13.803Z,95
2018-11-12T09:24:24.438Z,90
2018-11-12T09:25:34.364Z,85
2018-11-12T09:26:44.498Z,90
2018-11-12T09:27:54.631Z,90
2018-11-12T09:29:04.502Z,95
2018-11-12T09:30:14.634Z,100
2018-11-12T09:31:30.069Z,105
2018-11-12T09:32:41.064Z,115
2018-11-12T09:33:51.650Z,115
2018-11-12T09:35:01.227Z,120
2018-11-12T09:36:11.351Z,110
2018-11-12T09:37:21.554Z,110
2018-11-12T09:38:31.726Z,105
2018-11-12T09:39:41.641Z,95
2018-11-12T09:40:51.500Z,95
2018-11-12T09:42:01.633Z,100
2018-11-12T09:43:11.769Z,90
2018-11-12T09:44:22.317Z,80
2018-11-12T09:45:32.501Z,80
2018-11-12T09:46:42.679Z,85
2018-11-12T09:47:53.377Z,95
2018-11-12T09:49:03.609Z,80
2018-11-12T09:50:13.566Z,75
2018-11-12T09:51:23.690Z,80
2018-11-12T09:52:33.545Z,90
2018-11-12T09:53:44.282Z,100
2018-11-12T09:54:55.329Z,115
2018-11-12T09:56:05.522Z,125
2018-11-12T09:57:15.664Z,140
2018-11-12T09:58:25.786Z,140
2018-11-12T09:59:36.456Z,130
2018-11-12T10:00:47.912Z,115
2018-11-12T10:02:01.680Z,110
2018-11-12T10:03:17.994Z,100
2018-11-12T10:04:35.282Z,100
2018-11-12T10:05:55.116Z,115
2018-11-12T10:07:15.422Z,95
2018-11-12T10:08:39.521Z,85
2018-11-12T10:10:10.081Z,80
2018-11-12T10:11:35.813Z,110
2018-11-12T10:13:00.756Z,145
2018-11-12T10:14:26.383Z,160
2018-11-12T10:15:55.050Z,135
2018-11-12T10:17:20.335Z,140
2018-11-12T10:18:32.769Z,155
2018-11-12T10:19:42.899Z,170
2018-11-12T10:20:53.095Z,170
2018-11-12T10:22:03.216Z,180
2018-11-12T10:23:13.062Z,185
2018-11-12T10:24:22.958Z,180
2018-11-12T10:25:33.082Z,200
2018-11-12T10:26:42.958Z,220
2018-11-12T10:27:52.255Z,225
2018-11-12T10:29:02.123Z,230
2018-11-12T10:30:12.315Z,230
2018-11-12T10:31:22.207Z,430
2018-11-12T10:32:32.064Z,315
2018-11-12T10:33:42.198Z,405
2018-11-12T10:34:52.046Z,435
2018-11-12T10:36:02.173Z,390
2018-11-12T10:37:11.753Z,385
2018-11-12T10:38:21.624Z,370
2018-11-12T10:39:31.476Z,355
2018-11-12T10:40:41.382Z,345
2018-11-12T10:41:51.300Z,350
2018-11-12T10:43:01.592Z,365
2018-11-12T10:44:11.445Z,390
2018-11-12T10:45:21.582Z,400
2018-11-12T10:46:31.441Z,390
2018-11-12T10:47:41.624Z,370
2018-11-12T10:48:51.476Z,375
2018-11-12T10:50:01.612Z,375
2018-11-12T10:51:15.595Z,365
2018-11-12T10:52:25.735Z,360
2018-11-12T10:53:36.276Z,165
2018-11-12T10:54:47.456Z,165
2018-11-12T10:55:58.532Z,170
2018-11-12T10:57:08.860Z,165
2018-11-12T10:58:18.782Z,210
2018-11-12T10:59:29.086Z,365
2018-11-12T11:00:39.247Z,365
2018-11-12T11:01:49.106Z,365
2018-11-12T11:02:59.244Z,365
2018-11-12T11:04:09.102Z,365
2018-11-12T11:05:19.280Z,365
2018-11-12T11:06:29.155Z,365
2018-11-12T11:07:39.285Z,370
2018-11-12T11:08:49.422Z,380
2018-11-12T11:09:59.000Z,375
2018-11-12T11:11:09.186Z,375
2018-11-12T11:12:19.040Z,380
2018-11-12T11:13:29.166Z,385
2018-11-12T11:14:39.024Z,385
2018-11-12T11:15:49.376Z,390
2018-11-12T11:16:59.553Z,390
2018-11-12T11:18:09.442Z,395
2018-11-12T11:19:19.571Z,395
2018-11-12T11:20:29.704Z,405
2018-11-12T11:21:39.831Z,415
2018-11-12T11:22:50.015Z,410
2018-11-12T11:23:59.596Z,250
2018-11-12T11:25:09.731Z,315
2018-11-12T11:26:19.583Z,185
2018-11-12T11:27:29.720Z,220
2018-11-12T11:28:39.910Z,160
2018-11-12T11:29:50.039Z,290
2018-11-12T11:31:00.493Z,430
2018-11-12T11:32:10.370Z,375
2018-11-12T11:33:20.229Z,330
2018-11-12T11:34:30.090Z,370
2018-11-12T11:35:40.221Z,340
2018-11-12T11:36:50.353Z,265
2018-11-12T11:38:00.812Z,180
2018-11-12T11:39:10.677Z,155
2018-11-12T11:40:21.265Z,155
